Time;durP1;ratioP1;P1;durP2;ratioP2;P2;SDS_P1;SDS_P2;PMS_P1;PMS_P2;Temp;Humidity;BMP_temperature;BMP_pressure;BME280_temperature;BME280_humidity;BME280_pressure;Samples;Min_cycle;Max_cycle;Signal;HPM_P1;HPM_P2
2023/07/01 00:01:00;;;;;;;27.50;5.27;;;27.70;47.90;;;;;;5028373;28;20201;-64
2023/07/01 00:03:30;;;;;;;33.23;6.10;;;27.70;48.00;;;;;;5015676;28;20229;-64
2023/07/01 00:05:58;;;;;;;28.20;5.07;;;27.70;48.00;;;;;;5006768;28;20579;-65
2023/07/01 00:08:25;;;;;;;26.40;5.20;;;27.70;48.00;;;;;;5013107;28;20255;-63
2023/07/01 00:10:52;;;;;;;32.33;5.53;;;27.70;48.00;;;;;;5014804;28;20206;-68
2023/07/01 00:13:19;;;;;;;36.80;6.13;;;27.70;48.30;;;;;;5014083;28;20209;-64
2023/07/01 00:15:46;;;;;;;30.60;5.53;;;27.70;48.00;;;;;;5016187;28;20612;-63
2023/07/01 00:18:14;;;;;;;27.47;5.30;;;27.70;48.00;;;;;;5027024;28;20234;-65
2023/07/01 00:20:41;;;;;;;24.20;4.73;;;27.70;48.10;;;;;;5013034;28;20228;-64
2023/07/01 00:23:08;;;;;;;27.10;5.27;;;27.70;48.10;;;;;;5008226;28;20202;-64
2023/07/01 00:25:35;;;;;;;34.00;5.83;;;27.70;48.10;;;;;;5035176;28;20200;-64
2023/07/01 00:28:02;;;;;;;17.30;4.57;;;27.70;48.10;;;;;;5046802;28;20657;-64
2023/07/01 00:30:28;;;;;;;30.00;5.57;;;27.70;48.30;;;;;;5046476;28;20211;-64
2023/07/01 00:32:55;;;;;;;36.37;6.10;;;27.70;48.10;;;;;;5044455;28;20195;-64
2023/07/01 00:35:24;;;;;;;29.80;5.40;;;27.70;48.10;;;;;;5033199;28;20196;-64
2023/07/01 00:37:50;;;;;;;24.93;5.30;;;27.70;48.20;;;;;;5043364;28;20220;-64
2023/07/01 00:40:17;;;;;;;31.83;5.90;;;27.70;48.20;;;;;;5047006;28;20204;-64
2023/07/01 00:42:44;;;;;;;27.93;5.40;;;27.70;48.20;;;;;;5047483;28;20215;-64
2023/07/01 00:45:11;;;;;;;20.90;4.33;;;27.70;48.30;;;;;;5046578;28;20196;-65
2023/07/01 00:47:39;;;;;;;38.37;6.17;;;27.70;48.30;;;;;;5044579;28;20660;-64
2023/07/01 00:50:10;;;;;;;32.83;5.93;;;27.70;48.30;;;;;;5012678;28;20202;-64
2023/07/01 00:52:39;;;;;;;28.77;5.53;;;27.70;48.30;;;;;;5010432;28;20252;-64
2023/07/01 00:55:08;;;;;;;36.77;6.13;;;27.70;48.30;;;;;;5011013;28;20211;-65
2023/07/01 00:57:35;;;;;;;27.77;4.83;;;27.70;48.30;;;;;;5026722;28;20224;-64
2023/07/01 01:00:04;;;;;;;28.20;5.40;;;27.70;48.30;;;;;;5024070;28;20202;-64
2023/07/01 01:02:36;;;;;;;18.70;4.33;;;27.70;48.30;;;;;;5011119;28;20213;-65
2023/07/01 01:05:11;;;;;;;31.87;5.50;;;27.70;48.40;;;;;;5011102;28;20662;-64
2023/07/01 01:07:46;;;;;;;30.13;5.43;;;27.70;48.40;;;;;;5026657;28;20257;-64
2023/07/01 01:10:18;;;;;;;27.87;5.47;;;27.70;48.40;;;;;;5013643;28;20197;-64
2023/07/01 01:12:47;;;;;;;44.07;6.53;;;27.70;48.30;;;;;;5025851;28;20201;-64
2023/07/01 01:15:14;;;;;;;40.93;6.47;;;27.70;48.40;;;;;;5010368;28;20213;-64
2023/07/01 01:17:42;;;;;;;26.00;4.83;;;27.70;48.40;;;;;;5013782;28;20221;-65
2023/07/01 01:20:13;;;;;;;32.60;5.87;;;27.70;48.40;;;;;;5011859;28;20240;-65
2023/07/01 01:22:47;;;;;;;28.17;5.37;;;27.70;48.50;;;;;;5014610;28;20668;-65
2023/07/01 01:25:23;;;;;;;34.23;5.57;;;27.70;48.50;;;;;;5019732;28;20197;-64
2023/07/01 01:27:54;;;;;;;22.93;4.63;;;27.70;48.50;;;;;;5010393;28;20223;-64
2023/07/01 01:30:22;;;;;;;22.77;4.97;;;27.70;48.50;;;;;;5018420;28;20208;-69
2023/07/01 01:32:50;;;;;;;32.37;5.83;;;27.60;48.50;;;;;;5025262;28;20204;-64
2023/07/01 01:35:16;;;;;;;42.47;6.47;;;27.60;49.10;;;;;;5023389;28;20206;-64
2023/07/01 01:37:48;;;;;;;59.37;7.83;;;27.60;48.50;;;;;;5025327;28;20232;-67
2023/07/01 01:40:20;;;;;;;42.30;6.50;;;27.60;48.50;;;;;;5010569;28;20205;-63
2023/07/01 01:42:47;;;;;;;22.87;4.73;;;27.60;48.50;;;;;;5010423;28;20223;-64
2023/07/01 01:45:19;;;;;;;27.30;5.13;;;27.60;48.50;;;;;;5014972;28;20199;-65
2023/07/01 01:47:48;;;;;;;22.93;5.00;;;27.70;48.60;;;;;;5024852;28;20197;-63
2023/07/01 01:50:17;;;;;;;22.83;4.87;;;27.60;48.50;;;;;;5021668;28;20854;-65
2023/07/01 01:52:44;;;;;;;43.37;6.23;;;27.60;48.60;;;;;;5021690;28;20193;-65
2023/07/01 01:55:14;;;;;;;46.53;6.93;;;27.60;48.60;;;;;;5014871;28;20282;-63
2023/07/01 01:57:42;;;;;;;46.07;6.77;;;27.60;48.60;;;;;;5024484;28;20233;-64
2023/07/01 02:00:13;;;;;;;31.00;5.10;;;27.60;48.60;;;;;;5013521;28;20587;-67
2023/07/01 02:02:41;;;;;;;44.40;6.73;;;27.60;48.60;;;;;;5010893;28;20198;-63
2023/07/01 02:05:08;;;;;;;32.63;5.53;;;27.60;48.60;;;;;;5010612;28;20198;-63
2023/07/01 02:07:35;;;;;;;46.10;7.07;;;27.60;48.60;;;;;;5009378;28;20213;-64
2023/07/01 02:10:03;;;;;;;43.17;6.23;;;27.60;48.60;;;;;;5029064;28;20208;-64
2023/07/01 02:12:31;;;;;;;27.73;5.53;;;27.60;48.70;;;;;;5012003;28;20252;-63
2023/07/01 02:14:58;;;;;;;36.77;5.50;;;27.60;48.60;;;;;;5018196;28;20201;-67
2023/07/01 02:17:25;;;;;;;35.00;5.77;;;27.60;48.70;;;;;;5027716;28;20238;-65
2023/07/01 02:19:53;;;;;;;22.40;4.67;;;27.50;48.60;;;;;;5024547;28;20300;-64
2023/07/01 02:22:20;;;;;;;32.43;5.50;;;27.60;48.70;;;;;;5029497;28;20206;-65
2023/07/01 02:24:47;;;;;;;31.47;5.37;;;27.50;48.70;;;;;;5011012;28;20205;-64
2023/07/01 02:27:14;;;;;;;28.33;4.90;;;27.50;48.70;;;;;;5009658;28;20684;-64
2023/07/01 02:29:41;;;;;;;27.43;5.10;;;27.50;48.80;;;;;;5010346;28;20209;-65
2023/07/01 02:32:08;;;;;;;29.20;5.17;;;27.50;48.80;;;;;;5023878;28;20211;-65
2023/07/01 02:34:35;;;;;;;28.90;4.93;;;27.50;48.80;;;;;;5012022;28;20212;-64
2023/07/01 02:37:03;;;;;;;26.10;5.10;;;27.50;48.80;;;;;;5009259;28;20221;-65
2023/07/01 02:39:30;;;;;;;24.07;4.57;;;27.50;48.80;;;;;;5009795;28;20209;-64
2023/07/01 02:41:57;;;;;;;50.80;6.93;;;27.50;48.80;;;;;;5011659;28;20201;-64
2023/07/01 02:44:24;;;;;;;29.80;5.20;;;27.50;48.80;;;;;;5029103;28;20687;-65
2023/07/01 02:46:52;;;;;;;33.23;5.73;;;27.50;48.80;;;;;;5028796;28;20208;-66
2023/07/01 02:49:20;;;;;;;29.40;5.20;;;27.50;48.90;;;;;;5014305;28;20205;-64
2023/07/01 02:51:47;;;;;;;22.53;4.57;;;27.50;48.80;;;;;;5028634;28;20242;-65
2023/07/01 02:54:15;;;;;;;40.80;6.33;;;27.50;48.90;;;;;;5024237;28;20204;-65
2023/07/01 02:56:42;;;;;;;29.17;5.37;;;27.50;48.90;;;;;;5008604;28;20206;-65
2023/07/01 02:59:10;;;;;;;38.33;5.80;;;27.50;48.90;;;;;;5024697;28;20233;-69
2023/07/01 03:01:37;;;;;;;27.87;5.13;;;27.50;49.00;;;;;;5023724;28;20211;-70
2023/07/01 03:04:07;;;;;;;21.17;4.37;;;27.50;49.00;;;;;;5012711;28;20201;-69
2023/07/01 03:06:35;;;;;;;34.57;6.00;;;27.50;49.00;;;;;;5008530;28;20206;-69
2023/07/01 03:09:07;;;;;;;31.93;5.40;;;27.50;49.00;;;;;;5017376;28;20217;-65
2023/07/01 03:11:35;;;;;;;30.47;5.07;;;27.50;49.00;;;;;;5027676;28;20715;-68
2023/07/01 03:14:02;;;;;;;44.53;6.37;;;27.50;49.10;;;;;;5010972;28;20202;-64
2023/07/01 03:16:30;;;;;;;26.67;4.93;;;27.50;49.10;;;;;;5016433;28;20204;-65
2023/07/01 03:18:58;;;;;;;32.30;5.33;;;27.50;49.10;;;;;;5022145;28;20226;-64
2023/07/01 03:21:25;;;;;;;27.23;4.97;;;27.50;49.10;;;;;;5022064;28;20254;-64
2023/07/01 03:23:52;;;;;;;27.60;4.83;;;27.40;49.10;;;;;;5016533;28;20200;-66
2023/07/01 03:26:19;;;;;;;48.97;6.70;;;27.40;49.70;;;;;;5019360;28;20197;-65
2023/07/01 03:28:47;;;;;;;24.53;5.07;;;27.50;49.20;;;;;;5019120;28;20628;-65
2023/07/01 03:31:14;;;;;;;42.27;6.40;;;27.50;49.20;;;;;;5016874;28;20660;-63
2023/07/01 03:33:41;;;;;;;21.37;4.37;;;27.40;49.10;;;;;;5039398;28;20200;-64
2023/07/01 03:36:08;;;;;;;31.73;5.40;;;27.40;49.10;;;;;;5033843;28;20204;-67
2023/07/01 03:38:34;;;;;;;27.20;5.03;;;27.40;49.10;;;;;;5036073;28;20236;-66
2023/07/01 03:41:01;;;;;;;30.40;5.10;;;27.40;49.10;;;;;;5028329;28;20210;-64
2023/07/01 03:43:29;;;;;;;32.47;5.53;;;27.40;49.10;;;;;;5022866;28;20200;-64
2023/07/01 03:45:57;;;;;;;22.47;4.47;;;27.40;49.20;;;;;;5033911;28;20208;-65
2023/07/01 03:48:24;;;;;;;18.53;4.17;;;27.40;49.20;;;;;;5027956;28;20201;-64
2023/07/01 03:50:51;;;;;;;16.53;4.17;;;27.50;49.30;;;;;;5044100;28;20230;-64
2023/07/01 03:53:18;;;;;;;30.53;5.20;;;27.40;49.30;;;;;;5042177;28;20675;-64
2023/07/01 03:55:45;;;;;;;47.03;6.50;;;27.40;49.30;;;;;;5031505;28;20216;-64
2023/07/01 03:58:12;;;;;;;23.50;4.73;;;27.40;49.30;;;;;;5007487;28;20712;-64
2023/07/01 04:00:48;;;;;;;42.80;6.27;;;27.40;49.30;;;;;;5030979;28;20199;-64
2023/07/01 04:03:16;;;;;;;29.10;5.17;;;27.40;49.30;;;;;;5027992;28;20204;-65
2023/07/01 04:05:43;;;;;;;31.03;5.27;;;27.40;49.40;;;;;;5009477;28;20208;-64
2023/07/01 04:08:10;;;;;;;31.27;5.43;;;27.40;49.40;;;;;;5033873;28;20213;-64
2023/07/01 04:10:37;;;;;;;24.17;4.80;;;27.40;49.40;;;;;;5034065;28;20216;-64
2023/07/01 04:13:04;;;;;;;26.23;4.90;;;27.40;49.40;;;;;;5015155;28;20658;-65
2023/07/01 04:15:31;;;;;;;27.83;5.00;;;27.40;49.40;;;;;;5010760;28;20209;-64
2023/07/01 04:17:58;;;;;;;25.20;4.77;;;27.40;49.40;;;;;;5010198;28;20242;-70
2023/07/01 04:20:26;;;;;;;50.60;7.07;;;27.40;49.40;;;;;;5027494;28;20207;-65
2023/07/01 04:22:53;;;;;;;22.23;4.80;;;27.40;49.50;;;;;;5027771;28;20296;-64
2023/07/01 04:25:20;;;;;;;37.33;6.07;;;27.40;49.50;;;;;;5032944;28;20234;-64
2023/07/01 04:27:47;;;;;;;23.87;4.60;;;27.40;49.50;;;;;;5051685;28;20204;-66
2023/07/01 04:30:15;;;;;;;20.83;4.37;;;27.40;49.50;;;;;;5048697;28;20667;-65
2023/07/01 04:32:42;;;;;;;31.37;5.20;;;27.30;49.50;;;;;;5033671;28;20212;-65
2023/07/01 04:35:09;;;;;;;55.03;7.57;;;27.40;49.60;;;;;;5031356;28;20201;-65
2023/07/01 04:37:37;;;;;;;27.77;5.03;;;27.40;49.60;;;;;;5050106;28;20232;-66
2023/07/01 04:40:05;;;;;;;26.73;5.13;;;27.40;49.60;;;;;;5051853;28;20211;-64
2023/07/01 04:42:33;;;;;;;28.43;4.90;;;27.30;49.50;;;;;;5019603;28;20205;-65
2023/07/01 04:45:00;;;;;;;23.97;4.63;;;27.30;49.60;;;;;;5044093;28;20208;-64
2023/07/01 04:47:27;;;;;;;24.63;4.55;;;27.30;49.60;;;;;;5049760;28;20429;-68
2023/07/01 04:49:54;;;;;;;25.80;4.80;;;27.20;50.20;;;;;;5031547;28;20209;-64
2023/07/01 04:52:21;;;;;;;28.43;5.23;;;27.30;50.10;;;;;;5038514;28;20208;-66
2023/07/01 04:54:50;;;;;;;28.33;5.03;;;27.30;49.90;;;;;;5051056;28;20203;-64
2023/07/01 04:57:17;;;;;;;25.27;4.63;;;27.30;49.90;;;;;;5051016;28;20188;-65
2023/07/01 04:59:43;;;;;;;39.97;6.53;;;27.30;49.80;;;;;;5033888;28;20200;-65
2023/07/01 05:02:10;;;;;;;36.53;5.73;;;27.40;49.80;;;;;;5032686;28;20779;-65
2023/07/01 05:04:37;;;;;;;57.77;7.47;;;27.40;49.80;;;;;;5018246;28;20240;-64
2023/07/01 05:07:05;;;;;;;19.20;4.60;;;27.40;49.70;;;;;;5028552;28;20206;-64
2023/07/01 05:09:31;;;;;;;29.50;4.93;;;27.40;49.70;;;;;;5018664;28;20212;-67
2023/07/01 05:12:00;;;;;;;27.53;5.03;;;27.40;49.80;;;;;;5018888;28;20232;-65
2023/07/01 05:14:26;;;;;;;29.40;5.23;;;27.40;49.80;;;;;;5028283;28;20208;-63
2023/07/01 05:16:53;;;;;;;28.73;5.03;;;27.40;49.80;;;;;;5020456;28;20217;-62
2023/07/01 05:19:20;;;;;;;29.77;5.37;;;27.40;49.80;;;;;;5012638;28;20221;-63
2023/07/01 05:21:50;;;;;;;31.83;5.67;;;27.40;49.90;;;;;;5015886;28;20256;-63
2023/07/01 05:24:17;;;;;;;33.27;5.87;;;27.40;49.90;;;;;;5012467;28;20703;-69
2023/07/01 05:26:46;;;;;;;26.03;4.73;;;27.40;49.90;;;;;;5019852;28;20202;-64
2023/07/01 05:29:14;;;;;;;38.73;6.03;;;27.40;50.50;;;;;;5037238;28;20216;-68
2023/07/01 05:31:41;;;;;;;26.47;5.13;;;27.40;49.90;;;;;;5013306;28;20196;-64
2023/07/01 05:34:08;;;;;;;33.93;5.83;;;27.40;49.90;;;;;;5036597;28;20205;-66
2023/07/01 05:36:36;;;;;;;22.23;4.50;;;27.40;49.90;;;;;;5028586;28;20215;-69
2023/07/01 05:39:04;;;;;;;22.87;4.63;;;27.40;49.90;;;;;;5027776;28;20247;-63
2023/07/01 05:41:31;;;;;;;32.80;5.53;;;27.40;49.90;;;;;;5024404;28;20279;-67
2023/07/01 05:43:58;;;;;;;47.23;7.17;;;27.40;50.00;;;;;;5026510;28;20207;-65
2023/07/01 05:46:27;;;;;;;25.83;5.03;;;27.40;50.00;;;;;;5009887;28;20198;-68
2023/07/01 05:48:54;;;;;;;32.03;5.47;;;27.40;50.00;;;;;;5015213;28;20201;-63
2023/07/01 05:51:21;;;;;;;33.23;5.53;;;27.40;50.00;;;;;;5026719;28;20204;-68
2023/07/01 05:53:48;;;;;;;26.17;4.73;;;27.40;50.00;;;;;;5015685;28;20197;-66
2023/07/01 05:56:16;;;;;;;45.53;6.57;;;27.40;50.00;;;;;;5026451;28;20645;-66
2023/07/01 05:58:43;;;;;;;22.63;4.53;;;27.40;50.10;;;;;;5033702;28;20216;-68
2023/07/01 06:01:10;;;;;;;25.13;4.57;;;27.30;50.00;;;;;;5022680;28;20681;-66
2023/07/01 06:03:38;;;;;;;47.17;6.63;;;27.40;50.10;;;;;;5011371;28;20197;-69
2023/07/01 06:06:05;;;;;;;28.30;5.20;;;27.40;50.20;;;;;;5030889;28;20204;-67
2023/07/01 06:08:32;;;;;;;30.77;5.20;;;27.40;50.20;;;;;;5033493;28;20202;-66
2023/07/01 06:10:58;;;;;;;32.77;5.37;;;27.40;50.20;;;;;;5012286;28;20216;-67
2023/07/01 06:13:25;;;;;;;25.10;4.93;;;27.40;50.30;;;;;;5027490;28;20288;-66
2023/07/01 06:15:52;;;;;;;27.17;4.67;;;27.40;50.20;;;;;;5010093;28;20309;-64
2023/07/01 06:18:19;;;;;;;29.93;5.33;;;27.40;50.30;;;;;;5028386;28;20224;-65
2023/07/01 06:20:47;;;;;;;46.23;6.47;;;27.40;50.30;;;;;;5030099;28;20201;-63
2023/07/01 06:23:16;;;;;;;24.63;4.57;;;27.40;50.30;;;;;;5031812;28;20203;-66
2023/07/01 06:25:43;;;;;;;28.87;5.00;;;27.40;50.30;;;;;;5036713;28;20199;-67
2023/07/01 06:28:10;;;;;;;31.40;5.47;;;27.40;50.30;;;;;;5033547;28;20195;-68
2023/07/01 06:30:37;;;;;;;26.50;4.87;;;27.40;50.30;;;;;;5039361;28;20204;-65
2023/07/01 06:33:06;;;;;;;29.50;4.90;;;27.40;50.40;;;;;;5016169;28;20206;-64
2023/07/01 06:35:33;;;;;;;23.63;5.03;;;27.40;50.30;;;;;;5048978;28;20607;-68
2023/07/01 06:38:01;;;;;;;22.17;4.47;;;27.40;50.30;;;;;;5035276;28;20197;-64
2023/07/01 06:40:28;;;;;;;29.83;5.10;;;27.40;50.40;;;;;;5016768;28;20223;-63
2023/07/01 06:42:55;;;;;;;27.50;5.23;;;27.40;50.40;;;;;;5029189;28;20201;-63
2023/07/01 06:45:22;;;;;;;57.93;7.47;;;27.40;50.40;;;;;;5028554;28;20213;-63
2023/07/01 06:47:49;;;;;;;30.53;5.33;;;27.40;50.40;;;;;;5032434;28;20197;-63
2023/07/01 06:50:16;;;;;;;39.87;6.30;;;27.40;50.40;;;;;;5018086;28;20232;-64
2023/07/01 06:52:43;;;;;;;47.13;6.70;;;27.40;50.40;;;;;;5022575;28;20654;-66
2023/07/01 06:55:13;;;;;;;33.10;5.20;;;27.40;50.50;;;;;;5031050;28;20205;-65
2023/07/01 06:57:40;;;;;;;33.73;5.47;;;27.40;50.60;;;;;;5021268;28;20202;-64
2023/07/01 07:00:10;;;;;;;33.00;5.77;;;27.40;50.50;;;;;;5010201;28;20697;-63
2023/07/01 07:02:37;;;;;;;36.27;5.53;;;27.30;50.50;;;;;;5010502;28;20308;-63
2023/07/01 07:05:04;;;;;;;38.70;5.90;;;27.40;50.60;;;;;;5024193;28;20208;-64
2023/07/01 07:07:31;;;;;;;35.90;5.73;;;27.40;50.60;;;;;;5025440;28;20208;-64
2023/07/01 07:09:58;;;;;;;41.27;6.40;;;27.40;50.60;;;;;;5022419;28;20750;-65
2023/07/01 07:12:27;;;;;;;27.97;4.67;;;27.40;50.60;;;;;;5008610;28;20213;-66
2023/07/01 07:14:54;;;;;;;53.77;7.20;;;27.40;50.70;;;;;;5017675;28;20204;-64
2023/07/01 07:17:20;;;;;;;25.93;4.80;;;27.40;50.70;;;;;;5008426;28;20229;-63
2023/07/01 07:19:47;;;;;;;22.53;4.77;;;27.40;50.70;;;;;;5013838;28;20230;-65
2023/07/01 07:22:14;;;;;;;25.83;4.90;;;27.30;50.70;;;;;;5033498;28;20283;-64
2023/07/01 07:24:41;;;;;;;53.43;7.10;;;27.40;50.70;;;;;;5036693;28;20196;-63
2023/07/01 07:27:08;;;;;;;28.23;5.00;;;27.30;50.80;;;;;;5026364;28;20213;-63
2023/07/01 07:29:37;;;;;;;27.10;4.90;;;27.40;50.80;;;;;;5046774;28;20204;-64
2023/07/01 07:32:04;;;;;;;28.00;4.97;;;27.30;50.70;;;;;;5026742;28;20202;-64
2023/07/01 07:34:31;;;;;;;35.10;5.93;;;27.40;51.40;;;;;;5017348;28;20201;-64
2023/07/01 07:36:58;;;;;;;47.57;6.93;;;27.40;50.80;;;;;;5013040;28;20200;-64
2023/07/01 07:39:25;;;;;;;34.40;5.63;;;27.30;50.80;;;;;;5013318;28;20610;-65
2023/07/01 07:41:52;;;;;;;29.43;5.43;;;27.30;50.80;;;;;;5019514;28;20993;-63
2023/07/01 07:44:19;;;;;;;28.97;5.23;;;27.30;50.80;;;;;;5027386;28;20205;-65
2023/07/01 07:46:47;;;;;;;30.40;5.33;;;27.30;50.80;;;;;;5026730;28;20204;-63
2023/07/01 07:49:16;;;;;;;29.50;5.30;;;27.30;50.80;;;;;;5029994;28;20201;-64
2023/07/01 07:51:43;;;;;;;31.73;5.50;;;27.30;50.80;;;;;;5022673;28;20669;-64
2023/07/01 07:54:10;;;;;;;26.93;5.00;;;27.30;50.80;;;;;;5036901;28;20196;-64
2023/07/01 07:56:37;;;;;;;50.50;7.10;;;27.40;50.90;;;;;;5032459;28;20840;-63
2023/07/01 07:59:04;;;;;;;23.80;4.60;;;27.30;50.90;;;;;;5013792;28;20716;-63
2023/07/01 08:01:31;;;;;;;33.10;5.63;;;27.30;50.90;;;;;;5043675;28;20196;-64
2023/07/01 08:03:59;;;;;;;31.67;5.50;;;27.30;50.90;;;;;;5037530;28;20743;-66
2023/07/01 08:06:26;;;;;;;36.73;6.40;;;27.30;50.90;;;;;;5018394;28;20193;-64
2023/07/01 08:08:53;;;;;;;25.97;5.40;;;27.40;51.00;;;;;;5014227;28;20209;-64
2023/07/01 08:11:20;;;;;;;37.67;6.27;;;27.30;50.90;;;;;;5018848;28;20213;-65
2023/07/01 08:13:47;;;;;;;37.57;6.20;;;27.30;50.90;;;;;;5020061;28;20202;-64
2023/07/01 08:16:14;;;;;;;30.13;5.63;;;27.30;51.00;;;;;;5018042;28;20205;-66
2023/07/01 08:18:41;;;;;;;39.80;6.13;;;27.30;51.00;;;;;;5029365;28;20259;-64
2023/07/01 08:21:10;;;;;;;28.90;5.70;;;27.40;51.10;;;;;;5028051;28;20213;-65
2023/07/01 08:23:36;;;;;;;22.03;4.63;;;27.30;51.10;;;;;;5042568;28;20211;-64
2023/07/01 08:26:04;;;;;;;21.27;5.03;;;27.40;51.10;;;;;;5048186;28;20202;-64
2023/07/01 08:28:31;;;;;;;21.90;4.43;;;27.30;51.20;;;;;;5030734;28;20212;-65
2023/07/01 08:30:58;;;;;;;39.20;6.13;;;27.40;51.20;;;;;;5038995;28;20192;-65
2023/07/01 08:33:26;;;;;;;24.87;4.97;;;27.40;51.30;;;;;;5050099;28;20655;-67
2023/07/01 08:35:52;;;;;;;27.37;5.30;;;27.40;51.30;;;;;;5054835;28;20207;-67
2023/07/01 08:38:21;;;;;;;25.80;4.83;;;27.40;51.30;;;;;;5054824;28;20208;-65
2023/07/01 08:40:50;;;;;;;24.23;5.20;;;27.40;51.30;;;;;;5054570;28;20215;-66
2023/07/01 08:43:24;;;;;;;32.83;5.67;;;27.40;51.30;;;;;;5054642;28;20283;-65
2023/07/01 08:45:52;;;;;;;31.17;5.63;;;27.40;51.30;;;;;;5051676;28;20207;-66
2023/07/01 08:48:21;;;;;;;22.23;5.27;;;27.40;51.30;;;;;;5035091;28;20549;-65
2023/07/01 08:50:53;;;;;;;26.13;5.23;;;27.40;51.30;;;;;;5034343;28;20740;-66
2023/07/01 08:53:21;;;;;;;31.13;5.37;;;27.50;51.40;;;;;;5034202;28;20279;-67
2023/07/01 08:55:49;;;;;;;40.77;6.17;;;27.40;51.30;;;;;;5033906;28;20207;-65
2023/07/01 08:58:16;;;;;;;26.93;5.27;;;27.50;51.40;;;;;;5028562;28;20213;-65
2023/07/01 09:00:44;;;;;;;21.50;4.40;;;27.50;51.40;;;;;;5017009;28;20233;-65
2023/07/01 09:03:12;;;;;;;29.20;5.47;;;27.50;51.40;;;;;;5017101;28;20205;-66
2023/07/01 09:05:39;;;;;;;118.17;12.73;;;27.50;51.50;;;;;;5012795;28;20256;-66
2023/07/01 09:08:06;;;;;;;55.70;7.43;;;27.50;52.10;;;;;;5037936;28;20216;-66
2023/07/01 09:10:35;;;;;;;48.77;6.90;;;27.50;51.60;;;;;;5025082;28;20216;-64
2023/07/01 09:13:10;;;;;;;26.87;4.93;;;27.50;51.60;;;;;;5037034;28;20235;-66
2023/07/01 09:15:43;;;;;;;28.63;5.67;;;27.50;51.70;;;;;;5018401;28;20263;-64
2023/07/01 09:18:20;;;;;;;39.77;6.37;;;27.50;51.70;;;;;;5020070;28;20727;-65
2023/07/01 09:20:48;;;;;;;45.57;6.80;;;27.60;51.70;;;;;;5028667;28;20239;-67
2023/07/01 09:23:26;;;;;;;28.67;5.43;;;27.60;51.70;;;;;;5013537;28;20202;-66
2023/07/01 09:26:11;;;;;;;44.40;6.73;;;27.60;51.80;;;;;;5023932;28;20724;-62
2023/07/01 09:28:38;;;;;;;31.03;5.70;;;27.60;51.70;;;;;;5020923;28;20204;-60
2023/07/01 09:31:06;;;;;;;32.13;5.87;;;27.70;51.60;;;;;;5016304;28;20578;-59
2023/07/01 09:33:35;;;;;;;31.20;5.50;;;27.70;51.70;;;;;;5016411;28;20201;-60
2023/07/01 09:36:03;;;;;;;22.00;4.83;;;27.70;51.70;;;;;;5028436;28;20231;-60
2023/07/01 09:38:30;;;;;;;41.03;6.87;;;27.70;51.70;;;;;;5017418;28;20209;-61
2023/07/01 09:41:13;;;;;;;38.60;6.33;;;27.70;51.70;;;;;;5026135;28;20278;-61
2023/07/01 09:43:40;;;;;;;34.57;5.60;;;27.70;51.80;;;;;;5021138;28;20211;-65
2023/07/01 09:46:07;;;;;;;35.47;6.17;;;27.70;51.70;;;;;;5038949;28;20204;-64
2023/07/01 09:48:35;;;;;;;21.47;4.40;;;27.80;51.80;;;;;;5029667;28;20201;-64
2023/07/01 09:51:02;;;;;;;26.97;5.37;;;27.80;51.90;;;;;;5011581;28;20213;-64
2023/07/01 09:53:31;;;;;;;60.03;7.87;;;27.80;51.80;;;;;;5012291;28;20200;-64
2023/07/01 09:56:01;;;;;;;73.83;9.37;;;27.80;51.90;;;;;;5027560;28;20608;-65
2023/07/01 09:58:28;;;;;;;27.53;5.17;;;27.80;52.00;;;;;;5024557;28;20302;-64
2023/07/01 10:00:57;;;;;;;29.63;5.63;;;27.90;52.00;;;;;;5021212;28;20294;-65
2023/07/01 10:03:25;;;;;;;38.77;6.33;;;27.90;52.00;;;;;;5035070;28;20735;-63
2023/07/01 10:05:53;;;;;;;56.03;7.77;;;27.90;52.10;;;;;;5024094;28;20205;-65
2023/07/01 10:08:20;;;;;;;63.43;8.63;;;27.90;52.10;;;;;;5026417;28;20200;-65
2023/07/01 10:10:59;;;;;;;19.47;4.63;;;27.90;52.20;;;;;;5014298;28;20212;-65
2023/07/01 10:13:29;;;;;;;23.10;5.00;;;27.90;52.50;;;;;;5029653;28;20197;-67
2023/07/01 10:15:57;;;;;;;21.87;4.90;;;28.00;52.50;;;;;;5029481;28;20201;-69
2023/07/01 10:18:24;;;;;;;31.30;5.87;;;28.00;52.50;;;;;;5024832;28;20213;-67
2023/07/01 10:20:51;;;;;;;26.27;5.50;;;28.00;52.50;;;;;;5019777;28;20228;-67
2023/07/01 10:23:20;;;;;;;32.00;6.13;;;28.00;52.50;;;;;;5010020;28;20661;-66
2023/07/01 10:25:47;;;;;;;28.70;5.80;;;28.10;52.60;;;;;;5019388;28;20196;-65
2023/07/01 10:28:15;;;;;;;20.53;4.87;;;28.10;52.50;;;;;;5034263;28;20260;-66
2023/07/01 10:31:14;;;;;;;32.77;6.47;;;28.20;52.60;;;;;;5041078;28;20192;-68
2023/07/01 10:33:52;;;;;;;32.73;5.80;;;28.20;52.70;;;;;;5049219;28;20660;-65
2023/07/01 10:36:19;;;;;;;45.00;6.93;;;28.20;52.60;;;;;;5030470;28;20220;-66
2023/07/01 10:38:46;;;;;;;20.80;4.70;;;28.20;52.40;;;;;;5030386;28;20214;-65
2023/07/01 10:41:13;;;;;;;27.93;5.43;;;28.20;52.40;;;;;;5011216;28;20233;-67
2023/07/01 10:43:40;;;;;;;24.97;5.10;;;28.30;52.40;;;;;;5027947;28;20201;-65
2023/07/01 10:46:22;;;;;;;41.60;6.97;;;28.30;52.40;;;;;;5012491;28;20201;-65
2023/07/01 10:49:07;;;;;;;29.30;5.63;;;28.30;52.40;;;;;;5029328;28;20261;-66
2023/07/01 10:52:07;;;;;;;34.73;5.57;;;28.30;52.70;;;;;;5019479;28;20208;-65
2023/07/01 10:54:38;;;;;;;26.10;5.27;;;28.40;52.60;;;;;;5027951;28;20227;-65
2023/07/01 10:57:13;;;;;;;26.13;5.03;;;28.40;52.40;;;;;;5033053;28;20217;-65
2023/07/01 10:59:40;;;;;;;35.30;5.63;;;28.40;52.40;;;;;;5027998;28;20239;-65
2023/07/01 11:02:10;;;;;;;32.70;5.63;;;28.40;52.30;;;;;;5022939;28;20197;-65
2023/07/01 11:05:05;;;;;;;33.77;5.87;;;28.40;52.30;;;;;;5029017;28;20206;-65
2023/07/01 11:07:32;;;;;;;43.97;6.70;;;28.40;52.30;;;;;;5018903;28;20191;-65
2023/07/01 11:09:59;;;;;;;40.47;6.17;;;28.40;52.20;;;;;;5013720;28;20575;-65
2023/07/01 11:12:27;;;;;;;24.33;4.80;;;28.40;52.20;;;;;;5013978;28;20197;-65
2023/07/01 11:14:55;;;;;;;27.47;5.10;;;28.40;52.20;;;;;;5044335;28;20648;-65
2023/07/01 11:17:24;;;;;;;20.70;4.90;;;28.40;52.20;;;;;;5009280;28;20279;-65
2023/07/01 11:19:55;;;;;;;35.67;5.83;;;28.40;52.20;;;;;;5008721;28;20688;-65
2023/07/01 11:22:22;;;;;;;24.90;4.93;;;28.40;52.20;;;;;;5011979;28;20197;-66
2023/07/01 11:24:49;;;;;;;26.43;4.97;;;28.40;52.20;;;;;;5033019;28;20204;-65
2023/07/01 11:27:17;;;;;;;25.77;4.87;;;28.40;52.20;;;;;;5045174;28;20215;-66
2023/07/01 11:29:47;;;;;;;29.70;5.47;;;28.40;52.20;;;;;;5048436;28;20659;-66
2023/07/01 11:32:14;;;;;;;35.10;6.10;;;28.40;52.20;;;;;;5038857;28;20192;-65
2023/07/01 11:34:45;;;;;;;32.43;5.87;;;28.40;52.20;;;;;;5042773;28;20200;-65
2023/07/01 11:37:22;;;;;;;18.17;4.60;;;28.40;52.30;;;;;;5011977;28;20217;-67
2023/07/01 11:39:49;;;;;;;30.53;5.53;;;28.40;52.30;;;;;;5008170;28;20221;-67
2023/07/01 11:42:16;;;;;;;48.53;7.17;;;28.40;52.30;;;;;;5028075;28;20680;-67
2023/07/01 11:44:43;;;;;;;21.63;4.73;;;28.40;52.30;;;;;;5026004;28;20197;-66
2023/07/01 11:47:13;;;;;;;44.93;6.83;;;28.40;52.30;;;;;;5013095;28;20205;-69
2023/07/01 11:49:42;;;;;;;26.03;5.20;;;28.40;52.30;;;;;;5009079;28;20208;-66
2023/07/01 11:52:09;;;;;;;35.70;5.57;;;28.40;52.40;;;;;;5009002;28;20206;-65
2023/07/01 11:54:44;;;;;;;27.83;5.00;;;28.40;52.40;;;;;;5015678;28;20221;-66
2023/07/01 11:57:13;;;;;;;31.03;5.53;;;28.40;52.40;;;;;;5027766;28;20204;-65
2023/07/01 11:59:41;;;;;;;23.50;4.97;;;28.40;52.40;;;;;;5027795;28;20204;-69
2023/07/01 12:02:09;;;;;;;33.67;5.70;;;28.40;52.40;;;;;;5027066;28;20204;-67
2023/07/01 12:04:36;;;;;;;28.47;5.37;;;28.40;52.40;;;;;;5038988;28;20211;-65
2023/07/01 12:07:09;;;;;;;30.20;5.87;;;28.40;52.40;;;;;;5022311;28;20212;-66
2023/07/01 12:09:36;;;;;;;28.53;5.40;;;28.40;52.50;;;;;;5008696;28;20616;-66
2023/07/01 12:12:03;;;;;;;54.40;7.33;;;28.40;52.40;;;;;;5017827;28;20238;-65
2023/07/01 12:14:30;;;;;;;35.00;5.60;;;28.40;52.40;;;;;;5020296;28;20200;-65
2023/07/01 12:16:57;;;;;;;22.33;4.40;;;28.40;52.40;;;;;;5028731;28;20225;-66
2023/07/01 12:19:25;;;;;;;19.57;4.40;;;28.40;52.50;;;;;;5015447;28;20709;-65
2023/07/01 12:21:54;;;;;;;40.37;6.37;;;28.40;52.40;;;;;;5022399;28;20652;-64
2023/07/01 12:24:24;;;;;;;33.77;5.67;;;28.40;52.50;;;;;;5026079;28;20201;-64
2023/07/01 12:26:53;;;;;;;22.53;4.83;;;28.40;52.50;;;;;;5047736;28;20200;-65
2023/07/01 12:29:20;;;;;;;59.90;8.13;;;28.40;52.50;;;;;;5015643;28;20201;-66
2023/07/01 12:31:47;;;;;;;38.50;6.17;;;28.40;52.50;;;;;;5042944;28;20204;-65
2023/07/01 12:34:14;;;;;;;41.87;6.53;;;28.40;52.50;;;;;;5045657;28;20200;-65
2023/07/01 12:36:44;;;;;;;31.93;5.60;;;28.40;52.50;;;;;;5013297;28;20994;-65
2023/07/01 12:39:11;;;;;;;36.13;5.83;;;28.40;52.60;;;;;;5032345;28;20714;-65
2023/07/01 12:41:40;;;;;;;25.43;5.00;;;28.40;52.60;;;;;;5044773;28;20434;-65